createdAt,value
2018-03-26T00:00:01.241Z,39.20
2018-03-26T00:02:28.698Z,39.67
2018-03-26T00:04:56.175Z,40.03
2018-03-26T00:07:23.651Z,41.83
2018-03-26T00:09:51.172Z,39.63
2018-03-26T00:12:18.626Z,38.63
2018-03-26T00:14:46.114Z,35.07
2018-03-26T00:17:13.586Z,39.13
2018-03-26T00:19:41.036Z,35.50
2018-03-26T00:22:08.483Z,39.43
2018-03-26T00:24:36.229Z,34.53
2018-03-26T00:27:03.688Z,37.87
2018-03-26T00:29:31.174Z,35.10
2018-03-26T00:31:58.669Z,38.23
2018-03-26T00:34:26.160Z,38.17
2018-03-26T00:36:53.635Z,37.93
2018-03-26T00:39:21.140Z,38.77
2018-03-26T00:41:48.606Z,37.83
2018-03-26T00:44:16.200Z,36.13
2018-03-26T00:46:44.424Z,38.53
2018-03-26T00:49:11.956Z,37.60
2018-03-26T00:51:39.461Z,38.43
2018-03-26T00:54:06.938Z,37.07
2018-03-26T00:56:34.421Z,38.10
2018-03-26T00:59:01.877Z,37.00
2018-03-26T01:01:29.307Z,37.30
2018-03-26T01:03:57.612Z,38.33
2018-03-26T01:06:25.116Z,35.10
2018-03-26T01:08:52.600Z,36.70
2018-03-26T01:11:20.125Z,36.37
2018-03-26T01:13:47.554Z,34.70
2018-03-26T01:16:15.000Z,36.47
2018-03-26T01:18:42.464Z,35.90
2018-03-26T01:21:09.940Z,35.77
2018-03-26T01:23:37.400Z,33.77
2018-03-26T01:26:04.866Z,34.73
2018-03-26T01:28:32.313Z,33.90
2018-03-26T01:30:59.782Z,33.87
2018-03-26T01:33:27.236Z,31.43
2018-03-26T01:35:54.671Z,32.93
2018-03-26T01:38:22.160Z,31.40
2018-03-26T01:40:49.584Z,31.07
2018-03-26T01:43:17.130Z,31.93
2018-03-26T01:45:44.588Z,32.60
2018-03-26T01:48:12.028Z,32.03
2018-03-26T01:50:39.502Z,31.47
2018-03-26T01:53:06.976Z,30.93
2018-03-26T01:55:34.502Z,31.33
2018-03-26T01:58:01.986Z,31.70
2018-03-26T02:00:29.448Z,30.27
2018-03-26T02:02:56.992Z,31.57
2018-03-26T02:05:24.450Z,29.83
2018-03-26T02:07:51.946Z,31.40
2018-03-26T02:10:19.398Z,31.63
2018-03-26T02:12:47.226Z,31.03
2018-03-26T02:15:14.664Z,31.93
2018-03-26T02:17:42.116Z,29.40
2018-03-26T02:20:09.608Z,29.80
2018-03-26T02:22:37.072Z,31.43
2018-03-26T02:25:04.524Z,31.47
2018-03-26T02:27:32.060Z,31.67
2018-03-26T02:29:59.507Z,30.33
2018-03-26T02:32:26.967Z,33.07
2018-03-26T02:34:54.451Z,32.43
2018-03-26T02:37:21.901Z,32.60
2018-03-26T02:39:49.504Z,32.40
2018-03-26T02:42:16.959Z,33.70
2018-03-26T02:44:44.417Z,33.30
2018-03-26T02:47:11.856Z,32.33
2018-03-26T02:49:39.369Z,32.10
2018-03-26T02:52:06.882Z,32.70
2018-03-26T02:54:34.357Z,33.40
2018-03-26T02:57:01.845Z,33.07
2018-03-26T02:59:29.318Z,31.87
2018-03-26T03:01:56.831Z,32.13
2018-03-26T03:04:24.285Z,33.10
2018-03-26T03:06:52.969Z,33.37
2018-03-26T03:09:20.444Z,32.93
2018-03-26T03:11:47.952Z,32.40
2018-03-26T03:14:16.436Z,33.40
2018-03-26T03:16:44.064Z,33.00
2018-03-26T03:19:11.568Z,33.73
2018-03-26T03:21:39.152Z,34.37
2018-03-26T03:24:06.944Z,34.07
2018-03-26T03:26:35.252Z,33.33
2018-03-26T03:29:02.713Z,33.57
2018-03-26T03:31:31.243Z,33.77
2018-03-26T03:33:58.748Z,32.07
2018-03-26T03:36:27.402Z,34.10
2018-03-26T03:38:54.870Z,33.10
2018-03-26T03:41:22.350Z,32.70
2018-03-26T03:43:50.724Z,31.87
2018-03-26T03:46:18.182Z,33.03
2018-03-26T03:48:45.819Z,32.53
2018-03-26T03:51:13.312Z,32.60
2018-03-26T03:53:40.758Z,33.63
2018-03-26T03:56:08.214Z,34.37
2018-03-26T03:58:35.716Z,32.47
2018-03-26T04:01:03.186Z,31.90
2018-03-26T04:03:30.708Z,33.40
2018-03-26T04:05:58.253Z,33.23
2018-03-26T04:08:25.740Z,31.07
2018-03-26T04:10:53.220Z,32.33
2018-03-26T04:13:20.787Z,32.57
2018-03-26T04:15:48.228Z,32.73
2018-03-26T04:18:15.749Z,32.60
2018-03-26T04:20:43.202Z,34.03
2018-03-26T04:23:10.674Z,33.17
2018-03-26T04:25:38.176Z,34.00
2018-03-26T04:28:05.712Z,34.20
2018-03-26T04:30:33.168Z,32.63
2018-03-26T04:33:00.672Z,34.30
2018-03-26T04:35:28.153Z,34.20
2018-03-26T04:37:55.613Z,33.17
2018-03-26T04:40:23.086Z,31.90
2018-03-26T04:42:51.293Z,33.43
2018-03-26T04:45:18.788Z,33.13
2018-03-26T04:47:46.226Z,34.03
2018-03-26T04:50:14.770Z,33.57
2018-03-26T04:52:42.472Z,32.83
2018-03-26T04:55:09.932Z,33.50
2018-03-26T04:57:37.386Z,32.97
2018-03-26T05:00:04.881Z,34.13
2018-03-26T05:02:32.363Z,33.03
2018-03-26T05:04:59.890Z,32.40
2018-03-26T05:07:27.387Z,32.00
2018-03-26T05:09:54.873Z,33.00
2018-03-26T05:12:22.370Z,32.63
2018-03-26T05:14:49.870Z,33.50
2018-03-26T05:17:17.349Z,31.67
2018-03-26T05:19:44.836Z,32.43
2018-03-26T05:22:12.323Z,32.73
2018-03-26T05:24:39.775Z,32.67
2018-03-26T05:27:07.305Z,32.03
2018-03-26T05:29:34.762Z,33.13
2018-03-26T05:32:02.236Z,32.97
2018-03-26T05:34:29.731Z,31.53
2018-03-26T05:36:57.237Z,32.63
2018-03-26T05:39:24.691Z,33.20
2018-03-26T05:41:52.181Z,32.37
2018-03-26T05:44:20.890Z,30.33
2018-03-26T05:46:48.431Z,32.67
2018-03-26T05:49:15.883Z,31.27
2018-03-26T05:51:43.379Z,32.13
2018-03-26T05:54:10.843Z,31.63
2018-03-26T05:56:38.313Z,33.47
2018-03-26T05:59:05.824Z,33.30
2018-03-26T06:01:33.320Z,31.97
2018-03-26T06:04:00.775Z,31.20
2018-03-26T06:06:28.287Z,34.17
2018-03-26T06:08:55.769Z,32.73
2018-03-26T06:11:23.257Z,34.17
2018-03-26T06:13:50.761Z,32.33
2018-03-26T06:16:18.249Z,33.23
2018-03-26T06:18:45.684Z,32.77
2018-03-26T06:21:13.221Z,31.63
2018-03-26T06:23:41.217Z,32.43
2018-03-26T06:26:08.712Z,32.67
2018-03-26T06:28:36.271Z,34.17
2018-03-26T06:31:03.817Z,33.43
2018-03-26T06:33:31.378Z,34.17
2018-03-26T06:35:58.905Z,34.87
2018-03-26T06:38:32.047Z,33.40
2018-03-26T06:40:59.488Z,34.10
2018-03-26T06:43:27.019Z,32.10
2018-03-26T06:45:54.723Z,32.30
2018-03-26T06:48:22.338Z,35.10
2018-03-26T06:50:49.846Z,32.87
2018-03-26T06:53:17.573Z,32.17
2018-03-26T06:55:45.345Z,33.40
2018-03-26T06:58:12.883Z,32.97
2018-03-26T07:00:40.357Z,33.17
2018-03-26T07:03:09.104Z,33.10
2018-03-26T07:05:36.680Z,32.60
2018-03-26T07:08:04.227Z,36.37
2018-03-26T07:10:31.753Z,35.07
2018-03-26T07:12:59.255Z,34.23
2018-03-26T07:15:26.719Z,32.07
2018-03-26T07:17:54.182Z,32.80
2018-03-26T07:20:21.680Z,33.50
2018-03-26T07:22:49.133Z,35.13
2018-03-26T07:25:16.554Z,31.97
2018-03-26T07:27:44.075Z,32.43
2018-03-26T07:30:11.531Z,30.87
2018-03-26T07:32:39.047Z,29.40
2018-03-26T07:35:06.560Z,27.97
2018-03-26T07:37:34.003Z,31.10
2018-03-26T07:40:01.474Z,27.13
2018-03-26T07:42:28.950Z,33.90
2018-03-26T07:44:56.471Z,34.87
2018-03-26T07:47:23.981Z,41.97
2018-03-26T07:49:51.497Z,32.97
2018-03-26T07:52:19.011Z,31.40
2018-03-26T07:54:46.513Z,27.83
2018-03-26T07:57:14.659Z,29.77
2018-03-26T07:59:42.144Z,28.47
2018-03-26T08:02:09.629Z,28.60
2018-03-26T08:04:37.159Z,28.47
2018-03-26T08:07:04.628Z,29.53
2018-03-26T08:09:32.080Z,27.37
2018-03-26T08:11:59.568Z,31.10
2018-03-26T08:14:27.100Z,30.30
2018-03-26T08:16:54.559Z,29.13
2018-03-26T08:19:22.001Z,28.73
2018-03-26T08:21:49.509Z,29.93
2018-03-26T08:24:17.000Z,30.17
2018-03-26T08:26:44.634Z,29.17
2018-03-26T08:29:12.119Z,30.23
2018-03-26T08:31:39.594Z,30.97
2018-03-26T08:34:07.075Z,31.13
2018-03-26T08:36:34.673Z,30.80
2018-03-26T08:39:02.230Z,30.87
2018-03-26T08:41:29.743Z,31.10
2018-03-26T08:43:57.290Z,30.47
2018-03-26T08:46:24.791Z,29.83
2018-03-26T08:48:52.310Z,32.07
2018-03-26T08:51:19.852Z,32.57
2018-03-26T08:53:47.341Z,31.23
2018-03-26T08:56:14.813Z,32.07
2018-03-26T08:58:42.350Z,32.50
2018-03-26T09:01:19.432Z,32.33
2018-03-26T09:03:46.897Z,31.30
2018-03-26T09:06:14.383Z,32.40
2018-03-26T09:08:41.856Z,32.63
2018-03-26T09:11:09.363Z,31.77
2018-03-26T09:13:36.832Z,33.40
2018-03-26T09:16:04.301Z,31.40
2018-03-26T09:18:31.905Z,32.50
2018-03-26T09:20:59.389Z,33.80
2018-03-26T09:23:26.881Z,32.23
2018-03-26T09:25:54.384Z,33.10
2018-03-26T09:28:21.810Z,33.97
2018-03-26T09:30:49.289Z,33.40
2018-03-26T09:33:16.917Z,35.13
2018-03-26T09:35:44.374Z,36.70
2018-03-26T09:38:11.839Z,37.90
2018-03-26T09:40:39.308Z,35.90
2018-03-26T09:43:06.767Z,35.70
2018-03-26T09:45:34.268Z,35.67
2018-03-26T09:48:02.197Z,34.17
2018-03-26T09:50:29.707Z,36.83
2018-03-26T09:52:57.189Z,36.13
2018-03-26T09:55:24.713Z,36.53
2018-03-26T09:57:52.256Z,37.37
2018-03-26T10:00:19.739Z,37.60
2018-03-26T10:02:47.315Z,34.50
2018-03-26T10:05:14.802Z,36.77
2018-03-26T10:07:42.334Z,36.40
2018-03-26T10:10:24.052Z,36.50
2018-03-26T10:12:52.655Z,36.73
2018-03-26T10:15:20.141Z,36.13
2018-03-26T10:17:47.709Z,37.57
2018-03-26T10:20:15.255Z,38.40
2018-03-26T10:22:43.534Z,37.90
2018-03-26T10:25:11.110Z,37.63
2018-03-26T10:27:39.434Z,38.30
2018-03-26T10:30:06.947Z,36.93
2018-03-26T10:32:34.442Z,39.63
2018-03-26T10:35:01.900Z,38.43
2018-03-26T10:37:29.372Z,38.87
2018-03-26T10:39:56.901Z,37.53
2018-03-26T10:42:24.432Z,38.33
2018-03-26T10:44:51.922Z,39.07
2018-03-26T10:47:19.404Z,38.00
2018-03-26T10:49:46.878Z,38.97
2018-03-26T10:52:14.320Z,39.10
2018-03-26T10:54:41.972Z,38.47
2018-03-26T10:57:09.472Z,41.20
2018-03-26T10:59:36.948Z,41.67
2018-03-26T11:02:04.454Z,41.30
2018-03-26T11:04:32.150Z,43.27
2018-03-26T11:06:59.812Z,40.53
2018-03-26T11:09:27.373Z,40.87
2018-03-26T11:11:54.900Z,43.00
2018-03-26T11:14:22.393Z,41.50
2018-03-26T11:16:49.953Z,40.63
2018-03-26T11:19:17.426Z,42.17
2018-03-26T11:24:46.960Z,40.20
2018-03-26T11:27:14.406Z,39.60
2018-03-26T11:29:41.959Z,40.60
2018-03-26T11:32:09.512Z,39.70
2018-03-26T11:34:36.990Z,40.13
2018-03-26T11:37:04.478Z,40.07
2018-03-26T11:39:31.953Z,39.87
2018-03-26T11:44:52.014Z,38.27
2018-03-26T11:47:19.504Z,37.57
2018-03-26T11:49:47.028Z,40.57
2018-03-26T11:52:14.473Z,38.03
2018-03-26T11:54:41.952Z,37.40
2018-03-26T11:57:09.477Z,35.83
2018-03-26T11:59:36.963Z,36.80
2018-03-26T12:02:04.475Z,37.77
2018-03-26T12:04:32.010Z,37.10
2018-03-26T12:06:59.476Z,36.67
2018-03-26T12:09:26.975Z,33.97
2018-03-26T12:11:54.430Z,34.17
2018-03-26T12:14:21.932Z,32.77
2018-03-26T12:16:49.424Z,33.80
2018-03-26T12:19:16.946Z,31.90
2018-03-26T12:21:44.498Z,30.03
2018-03-26T12:24:23.749Z,32.10
2018-03-26T12:26:51.245Z,32.27
2018-03-26T12:29:30.616Z,30.27
2018-03-26T12:31:58.192Z,28.23
2018-03-26T12:34:37.421Z,31.40
2018-03-26T12:37:04.963Z,29.53
2018-03-26T12:39:33.285Z,30.57
2018-03-26T12:45:16.818Z,27.57
2018-03-26T12:47:44.296Z,26.53
2018-03-26T12:50:26.070Z,24.60
2018-03-26T12:52:54.338Z,28.00
2018-03-26T12:55:21.861Z,26.63
2018-03-26T12:58:01.136Z,27.47
2018-03-26T13:00:28.655Z,26.77
2018-03-26T13:02:56.222Z,26.33
2018-03-26T13:05:23.720Z,28.00
2018-03-26T13:07:51.196Z,24.37
2018-03-26T13:10:18.643Z,27.93
2018-03-26T13:12:46.088Z,29.27
2018-03-26T13:15:13.594Z,24.47
2018-03-26T13:17:41.154Z,27.70
2018-03-26T13:20:13.566Z,24.07
2018-03-26T13:22:41.104Z,27.57
2018-03-26T13:25:08.588Z,27.83
2018-03-26T13:27:36.122Z,24.87
2018-03-26T13:32:56.512Z,24.53
2018-03-26T13:35:24.001Z,28.10
2018-03-26T13:37:51.462Z,25.23
2018-03-26T13:40:18.928Z,28.77
2018-03-26T13:42:46.834Z,25.03
2018-03-26T13:45:14.718Z,26.90
2018-03-26T13:47:42.208Z,24.87
2018-03-26T13:53:02.484Z,23.50
2018-03-26T13:55:30.092Z,28.77
2018-03-26T13:57:57.642Z,25.17
2018-03-26T14:00:25.923Z,26.93
2018-03-26T14:02:53.479Z,22.93
2018-03-26T14:05:20.969Z,23.43
2018-03-26T14:07:48.461Z,22.50
2018-03-26T14:10:27.750Z,22.53
2018-03-26T14:13:07.027Z,21.40
2018-03-26T14:15:46.393Z,22.70
2018-03-26T14:18:14.000Z,24.03
2018-03-26T14:20:41.511Z,23.57
2018-03-26T14:23:09.040Z,23.60
2018-03-26T14:25:36.549Z,25.03
2018-03-26T14:28:04.035Z,23.70
2018-03-26T14:30:31.586Z,23.53
2018-03-26T14:32:59.032Z,23.67
2018-03-26T14:38:17.433Z,22.80
2018-03-26T14:40:45.836Z,19.33
2018-03-26T14:43:14.364Z,18.60
2018-03-26T14:45:41.895Z,23.37
2018-03-26T14:48:09.416Z,20.37
2018-03-26T14:50:36.875Z,20.80
2018-03-26T14:53:04.359Z,24.10
2018-03-26T14:55:32.006Z,23.33
2018-03-26T14:57:59.704Z,26.57
2018-03-26T15:00:27.173Z,25.30
2018-03-26T15:02:54.776Z,28.57
2018-03-26T15:05:22.317Z,24.37
2018-03-26T15:07:49.871Z,25.03
2018-03-26T15:10:17.345Z,22.73
2018-03-26T15:12:44.833Z,23.97
2018-03-26T15:15:12.446Z,19.20
2018-03-26T15:17:39.901Z,22.77
2018-03-26T15:20:07.843Z,19.03
2018-03-26T15:22:35.515Z,22.10
2018-03-26T15:25:02.977Z,18.83
2018-03-26T15:27:30.625Z,21.70
2018-03-26T15:29:58.986Z,19.97
2018-03-26T15:32:26.561Z,21.03
2018-03-26T15:34:54.105Z,19.50
2018-03-26T15:37:21.975Z,23.37
2018-03-26T15:42:25.584Z,24.90
2018-03-26T15:44:53.067Z,22.47
2018-03-26T15:47:20.529Z,24.93
2018-03-26T15:49:48.875Z,23.07
2018-03-26T15:52:16.393Z,26.63
2018-03-26T15:54:43.939Z,23.30
2018-03-26T15:57:11.507Z,25.73
2018-03-26T15:59:39.059Z,25.20
2018-03-26T16:02:10.915Z,23.03
2018-03-26T16:04:38.439Z,26.17
2018-03-26T16:07:05.946Z,25.50
2018-03-26T16:09:33.681Z,25.87
2018-03-26T16:12:01.257Z,22.93
2018-03-26T16:14:28.783Z,25.27
2018-03-26T16:16:56.263Z,20.97
2018-03-26T16:19:23.839Z,22.97
2018-03-26T16:21:52.598Z,19.83
2018-03-26T16:24:20.082Z,20.50
2018-03-26T16:26:47.632Z,16.53
2018-03-26T16:29:15.217Z,16.13
2018-03-26T16:31:42.935Z,15.00
2018-03-26T16:34:10.585Z,15.30
2018-03-26T16:36:38.118Z,15.07
2018-03-26T16:39:05.731Z,16.67
2018-03-26T16:41:44.888Z,14.57
2018-03-26T16:44:12.416Z,16.40
2018-03-26T16:46:39.942Z,16.20
2018-03-26T16:49:07.473Z,17.87
2018-03-26T16:51:34.995Z,17.13
2018-03-26T16:54:02.552Z,17.63
2018-03-26T16:56:30.067Z,17.20
2018-03-26T16:58:57.549Z,17.67
2018-03-26T17:01:25.093Z,18.27
2018-03-26T17:03:52.641Z,19.87
2018-03-26T17:06:20.139Z,20.17
2018-03-26T17:08:48.574Z,19.10
2018-03-26T17:11:35.486Z,20.50
2018-03-26T17:14:03.072Z,19.40
2018-03-26T17:16:30.629Z,21.73
2018-03-26T17:18:58.100Z,21.67
2018-03-26T17:21:31.445Z,23.27
2018-03-26T17:23:59.053Z,22.57
2018-03-26T17:26:26.583Z,22.53
2018-03-26T17:28:54.122Z,22.43
2018-03-26T17:31:36.269Z,22.67
2018-03-26T17:34:03.807Z,23.13
2018-03-26T17:36:31.833Z,23.27
2018-03-26T17:38:59.437Z,24.13
2018-03-26T17:41:26.952Z,23.63
2018-03-26T17:43:54.461Z,22.00
2018-03-26T17:46:21.973Z,23.77
2018-03-26T17:48:50.388Z,21.00
2018-03-26T17:51:17.943Z,23.90
2018-03-26T17:53:45.657Z,22.97
2018-03-26T17:56:13.253Z,24.37
2018-03-26T17:58:40.766Z,22.73
2018-03-26T18:01:08.319Z,27.27
2018-03-26T18:03:35.818Z,24.87
2018-03-26T18:06:03.452Z,22.93
2018-03-26T18:08:30.996Z,25.57
2018-03-26T18:10:58.483Z,22.73
2018-03-26T18:13:26.066Z,26.60
2018-03-26T18:15:53.807Z,22.50
2018-03-26T18:18:21.335Z,28.03
2018-03-26T18:20:48.894Z,28.17
2018-03-26T18:23:16.466Z,27.67
2018-03-26T18:25:43.998Z,27.23
2018-03-26T18:28:11.562Z,28.40
2018-03-26T18:30:39.100Z,27.90
2018-03-26T18:33:07.655Z,27.57
2018-03-26T18:35:35.298Z,27.13
2018-03-26T18:38:03.018Z,27.87
2018-03-26T18:40:30.855Z,29.57
2018-03-26T18:42:58.387Z,27.73
2018-03-26T18:45:25.916Z,29.73
2018-03-26T18:47:53.517Z,30.33
2018-03-26T18:50:21.023Z,28.40
2018-03-26T18:52:48.575Z,29.33
2018-03-26T18:55:16.051Z,29.30
2018-03-26T18:57:43.850Z,30.70
2018-03-26T19:00:16.554Z,30.77
2018-03-26T19:02:44.064Z,29.97
2018-03-26T19:05:11.617Z,30.60
2018-03-26T19:07:39.168Z,33.10
2018-03-26T19:10:06.767Z,29.20
2018-03-26T19:12:34.247Z,31.73
2018-03-26T19:15:01.703Z,32.07
2018-03-26T19:17:29.226Z,29.17
2018-03-26T19:19:56.854Z,31.27
2018-03-26T19:22:24.394Z,33.63
2018-03-26T19:24:51.903Z,32.17
2018-03-26T19:27:19.420Z,32.40
2018-03-26T19:29:46.982Z,30.77
2018-03-26T19:32:14.539Z,33.83
2018-03-26T19:34:42.190Z,33.73
2018-03-26T19:37:09.778Z,33.27
2018-03-26T19:39:37.298Z,32.47
2018-03-26T19:42:04.803Z,31.97
2018-03-26T19:44:32.347Z,33.50
2018-03-26T19:47:00.006Z,31.33
2018-03-26T19:49:27.504Z,27.80
2018-03-26T19:51:55.030Z,27.93
2018-03-26T19:54:22.604Z,26.93
2018-03-26T19:56:50.151Z,23.67
2018-03-26T19:59:17.624Z,24.30
2018-03-26T20:01:45.194Z,23.00
2018-03-26T20:04:12.754Z,22.17
2018-03-26T20:06:40.306Z,20.67
2018-03-26T20:09:08.273Z,19.30
2018-03-26T20:11:35.744Z,17.30
2018-03-26T20:14:03.574Z,16.97
2018-03-26T20:16:31.274Z,16.60
2018-03-26T20:18:58.782Z,16.23
2018-03-26T20:21:26.358Z,15.70
2018-03-26T20:23:53.894Z,14.03
2018-03-26T20:26:21.442Z,13.37
2018-03-26T20:28:48.904Z,13.37
2018-03-26T20:31:16.416Z,12.27
2018-03-26T20:33:43.924Z,11.50
2018-03-26T20:36:11.506Z,11.80
2018-03-26T20:38:38.986Z,11.90
2018-03-26T20:41:06.531Z,11.87
2018-03-26T20:43:34.034Z,10.63
2018-03-26T20:46:01.536Z,10.47
2018-03-26T20:48:29.028Z,12.43
2018-03-26T20:50:56.564Z,11.27
2018-03-26T20:53:24.074Z,13.13
2018-03-26T20:55:51.606Z,10.83
2018-03-26T20:58:19.105Z,11.13
2018-03-26T21:00:46.638Z,10.73
2018-03-26T21:03:14.128Z,13.00
2018-03-26T21:05:41.628Z,11.47
2018-03-26T21:08:09.138Z,11.17
2018-03-26T21:10:36.812Z,12.17
2018-03-26T21:13:04.343Z,12.80
2018-03-26T21:15:31.842Z,11.47
2018-03-26T21:17:59.303Z,12.63
2018-03-26T21:20:26.864Z,12.23
2018-03-26T21:22:54.832Z,14.20
2018-03-26T21:25:22.304Z,13.87
2018-03-26T21:27:49.771Z,13.80
2018-03-26T21:33:09.558Z,12.97
2018-03-26T21:35:37.014Z,13.10
2018-03-26T21:38:04.569Z,14.33
2018-03-26T21:40:33.590Z,12.63
2018-03-26T21:43:01.054Z,13.30
2018-03-26T21:45:28.616Z,12.87
2018-03-26T21:47:56.116Z,13.23
2018-03-26T21:50:23.639Z,14.17
2018-03-26T21:52:51.192Z,12.37
2018-03-26T21:55:18.674Z,13.13
2018-03-26T21:57:46.238Z,12.60
2018-03-26T22:00:21.603Z,12.17
2018-03-26T22:02:49.338Z,13.47
2018-03-26T22:05:16.832Z,13.33
2018-03-26T22:07:44.535Z,14.10
2018-03-26T22:10:11.982Z,13.37
2018-03-26T22:12:39.582Z,13.30
2018-03-26T22:15:07.284Z,13.43
2018-03-26T22:17:34.749Z,12.73
2018-03-26T22:20:03.024Z,12.67
2018-03-26T22:22:30.527Z,13.40
2018-03-26T22:24:58.085Z,13.50
2018-03-26T22:27:25.624Z,14.03
2018-03-26T22:29:53.080Z,12.90
2018-03-26T22:32:30.266Z,13.17
2018-03-26T22:34:57.789Z,12.73
2018-03-26T22:37:25.271Z,12.47
2018-03-26T22:39:53.798Z,14.23
2018-03-26T22:42:31.050Z,14.70
2018-03-26T22:44:58.534Z,13.17
2018-03-26T22:47:26.035Z,12.97
2018-03-26T22:49:53.703Z,13.93
2018-03-26T22:52:21.161Z,14.17
2018-03-26T22:54:48.630Z,14.57
2018-03-26T22:57:16.128Z,13.90
2018-03-26T22:59:43.723Z,14.40
2018-03-26T23:02:11.209Z,14.17
2018-03-26T23:04:38.705Z,14.23
2018-03-26T23:07:06.221Z,14.47
2018-03-26T23:09:33.904Z,14.07
2018-03-26T23:12:15.829Z,13.37
2018-03-26T23:14:43.394Z,14.37
2018-03-26T23:17:11.006Z,14.10
2018-03-26T23:19:38.516Z,13.50
2018-03-26T23:22:06.013Z,15.50
2018-03-26T23:24:33.508Z,14.00
2018-03-26T23:27:01.035Z,13.87
2018-03-26T23:29:28.566Z,15.07
2018-03-26T23:31:56.073Z,15.37
2018-03-26T23:34:23.534Z,14.57
2018-03-26T23:36:51.111Z,15.93
2018-03-26T23:39:18.626Z,15.37
2018-03-26T23:41:46.099Z,14.47
2018-03-26T23:44:13.547Z,15.27
2018-03-26T23:46:41.003Z,15.47
2018-03-26T23:49:08.436Z,15.33
2018-03-26T23:51:38.882Z,15.13
2018-03-26T23:54:06.350Z,15.37
2018-03-26T23:56:33.817Z,15.27
2018-03-26T23:59:01.361Z,15.63
